Airfield :







YOU CAN JOIN US ON...

 
LOGIN :

Register | Disclaimer

   EN    FR    IT 

 









Legend :    VFR   Marginal VFR   IFR   Intensive IFR   Very Intensive IFR
Visi :
Ceiling :
>= 8 km
>= 3000ft
5 to 8 km
1000 to 3000 ft
1500m to 5 km
500 to 1000 ft
800 to 1500m
200 to 500 ft
< 800m
< 200 ft
Symbols :   Thunderstorms  Fog  Heavy snow  Heavy precipitations  Wind > 20 kt






- Airport Elevation : 27 ft
- IATA code : FSP


LFVP - St Pierre et Miquelon

CURRENT METAR :
  • 051900Z 25012KT 9999 BKN006 02/02 Q0997 NOSIG

EXPIRED METARs :
  • 051800Z 29009KT 250V340 9999 BKN005 03/02 Q0995 NOSIG
  • 051700Z 30012KT 9999 BKN006 03/03 Q0995 NOSIG

TAF TAF LFVP
Valid from the 05 at 18:00 until the 06 at 03:00 UTC


051700Z 0518/0603 30015KT 9999 BKN005
BECMG 0521/0524 26010KT



MET'MAP, your aeronautical weather chart ! - Copyright ORBIFLY December 2007 - Disclaimer

ORBIFLY MET'MAP TEAM :

Programming & Development : Alexandra Zaïnal
Concept & original design : Baudouin d'Aumeries
Assistance for programming : Marc-Olivier Méhu
Technical & hardware support : Manuel Goepfert

Contact : metmap@orbifly.com




SOURCES & CREDITS :

   NOAA